Time;durP1;ratioP1;P1;durP2;ratioP2;P2;SDS_P1;SDS_P2;PMS_P1;PMS_P2;Temp;Humidity;BMP_temperature;BMP_pressure;BME280_temperature;BME280_humidity;BME280_pressure;Samples;Min_cycle;Max_cycle;Signal;HPM_P1;HPM_P2
2023/07/06 00:01:05;;;;;;;3.55;2.08;;;21.00;57.50;;;;;;5002700;28;20038;-67
2023/07/06 00:03:33;;;;;;;2.30;1.60;;;21.00;57.30;;;;;;5001204;28;20443;-67
2023/07/06 00:06:00;;;;;;;2.67;1.80;;;21.00;57.60;;;;;;5003119;28;20237;-67
2023/07/06 00:08:27;;;;;;;2.50;1.83;;;21.00;58.10;;;;;;5002085;28;20073;-67
2023/07/06 00:10:53;;;;;;;3.40;1.77;;;21.00;57.60;;;;;;5001584;28;20117;-66
2023/07/06 00:13:23;;;;;;;2.63;1.90;;;21.00;57.60;;;;;;5003400;28;20037;-66
2023/07/06 00:15:49;;;;;;;2.72;1.92;;;21.00;57.60;;;;;;5002841;28;20030;-66
2023/07/06 00:18:16;;;;;;;3.33;1.65;;;21.00;57.60;;;;;;5000958;28;20423;-66
2023/07/06 00:20:41;;;;;;;2.95;1.85;;;20.90;57.50;;;;;;5002628;28;20034;-67
2023/07/06 00:23:09;;;;;;;3.05;1.60;;;21.00;57.40;;;;;;4997769;28;20092;-66
2023/07/06 00:25:36;;;;;;;2.65;1.80;;;21.00;57.70;;;;;;4998126;28;20030;-67
2023/07/06 00:28:03;;;;;;;3.03;2.10;;;21.00;57.60;;;;;;5003126;28;20223;-66
2023/07/06 00:33:11;;;;;;;2.78;1.92;;;20.90;57.50;;;;;;4999951;28;20037;-66
2023/07/06 00:35:39;;;;;;;3.45;2.45;;;20.90;57.50;;;;;;4999195;28;20080;-65
2023/07/06 00:38:09;;;;;;;3.70;1.88;;;21.00;57.40;;;;;;5000281;28;20061;-68
2023/07/06 00:40:37;;;;;;;3.65;2.63;;;20.90;57.50;;;;;;5003126;28;20038;-65
2023/07/06 00:43:03;;;;;;;2.10;1.67;;;20.90;57.40;;;;;;5002801;28;20401;-68
2023/07/06 00:45:29;;;;;;;3.17;2.08;;;20.90;57.50;;;;;;5001928;28;20061;-67
2023/07/06 00:47:59;;;;;;;1.83;1.60;;;21.00;57.40;;;;;;5003222;28;20026;-67
2023/07/06 00:50:28;;;;;;;3.10;1.65;;;20.90;57.50;;;;;;5002044;28;20029;-67
2023/07/06 00:53:06;;;;;;;2.90;1.80;;;20.90;57.50;;;;;;5004274;28;20447;-68
2023/07/06 00:55:36;;;;;;;3.38;1.98;;;20.90;57.50;;;;;;5003671;28;20829;-68
2023/07/06 00:58:22;;;;;;;3.60;2.00;;;20.90;57.40;;;;;;5002485;28;20037;-67
2023/07/06 01:00:50;;;;;;;3.63;1.90;;;20.90;57.40;;;;;;5002162;28;20034;-68
2023/07/06 01:03:19;;;;;;;2.25;1.70;;;20.90;57.40;;;;;;5003804;28;20274;-68
2023/07/06 01:05:47;;;;;;;2.80;2.28;;;20.90;57.40;;;;;;5002541;28;20042;-67
2023/07/06 01:08:16;;;;;;;3.03;1.83;;;20.90;57.40;;;;;;5007661;28;20040;-68
2023/07/06 01:10:43;;;;;;;2.60;1.80;;;20.90;57.30;;;;;;5006894;28;20026;-66
2023/07/06 01:13:08;;;;;;;3.10;2.00;;;20.90;57.40;;;;;;5000958;28;20117;-67
2023/07/06 01:15:47;;;;;;;3.65;2.08;;;20.80;57.40;;;;;;5005188;28;20121;-67
2023/07/06 01:18:42;;;;;;;3.30;2.00;;;20.90;57.50;;;;;;5005001;28;20504;-66
2023/07/06 01:21:24;;;;;;;3.80;2.20;;;20.80;57.30;;;;;;5003248;28;20052;-67
2023/07/06 01:24:05;;;;;;;2.75;1.88;;;20.80;57.40;;;;;;5002934;28;20067;-68
2023/07/06 01:27:04;;;;;;;2.97;1.80;;;20.80;57.30;;;;;;5002778;28;20528;-66
2023/07/06 01:30:06;;;;;;;2.83;2.00;;;20.80;57.40;;;;;;5003115;28;20037;-67
2023/07/06 01:32:37;;;;;;;3.15;1.90;;;20.80;57.00;;;;;;5005543;28;20065;-65
2023/07/06 01:35:12;;;;;;;2.60;1.83;;;20.80;57.00;;;;;;5003995;28;20393;-67
2023/07/06 01:37:43;;;;;;;2.55;1.88;;;20.70;57.00;;;;;;5019777;28;20038;-67
2023/07/06 01:40:10;;;;;;;2.25;1.80;;;20.80;57.30;;;;;;5006200;28;20069;-67
2023/07/06 01:42:42;;;;;;;2.83;2.13;;;20.70;57.10;;;;;;5005904;28;20086;-67
2023/07/06 01:45:15;;;;;;;2.42;2.03;;;20.70;56.90;;;;;;5006703;28;20045;-66
2023/07/06 01:47:44;;;;;;;3.58;2.05;;;20.70;57.00;;;;;;5004880;28;20030;-66
2023/07/06 01:50:12;;;;;;;3.28;2.30;;;20.70;56.80;;;;;;5005479;28;20066;-66
2023/07/06 01:52:58;;;;;;;2.17;1.98;;;20.70;56.80;;;;;;5005579;28;20030;-66
2023/07/06 01:55:29;;;;;;;2.65;2.05;;;20.70;56.90;;;;;;5000201;28;20035;-67
2023/07/06 01:58:04;;;;;;;1.98;1.77;;;20.70;56.80;;;;;;5002743;28;20050;-65
2023/07/06 02:00:30;;;;;;;;;;;20.70;56.90;;;;;;5005513;28;20057;-66
2023/07/06 02:02:58;;;;;;;4.35;2.22;;;20.70;56.90;;;;;;5002655;28;20088;-67
2023/07/06 02:05:24;;;;;;;2.55;2.10;;;20.60;56.80;;;;;;5002953;28;20083;-67
2023/07/06 02:07:50;;;;;;;3.90;2.28;;;20.60;57.00;;;;;;4999156;28;20411;-67
2023/07/06 02:10:19;;;;;;;2.60;1.95;;;20.60;56.80;;;;;;5003331;28;20041;-67
2023/07/06 02:12:47;;;;;;;3.70;2.00;;;20.60;56.90;;;;;;5005594;28;20026;-67
2023/07/06 02:15:18;;;;;;;3.28;2.00;;;20.60;56.80;;;;;;5002893;28;20052;-66
2023/07/06 02:17:45;;;;;;;2.40;2.20;;;20.60;56.80;;;;;;5003416;28;20022;-67
2023/07/06 02:20:11;;;;;;;3.33;2.08;;;20.70;56.90;;;;;;5002421;28;20112;-66
2023/07/06 02:22:39;;;;;;;2.13;1.80;;;20.60;56.80;;;;;;5000866;28;20077;-66
2023/07/06 02:25:05;;;;;;;2.47;2.00;;;20.60;56.80;;;;;;5004157;28;20109;-67
2023/07/06 02:27:32;;;;;;;3.80;2.17;;;20.60;56.80;;;;;;5001168;28;20536;-66
2023/07/06 02:29:59;;;;;;;3.50;2.20;;;20.60;56.80;;;;;;5004223;28;20512;-66
2023/07/06 02:32:25;;;;;;;2.42;1.88;;;20.60;57.00;;;;;;5004294;28;20065;-67
2023/07/06 02:34:50;;;;;;;3.15;1.88;;;20.60;56.90;;;;;;5004502;28;20185;-66
2023/07/06 02:37:16;;;;;;;3.13;2.15;;;20.60;56.80;;;;;;5003935;28;20113;-65
2023/07/06 02:39:41;;;;;;;3.75;1.85;;;20.60;56.90;;;;;;5005585;28;20030;-67
2023/07/06 02:42:07;;;;;;;2.47;2.00;;;20.70;57.00;;;;;;5003670;28;20570;-67
2023/07/06 02:44:33;;;;;;;2.63;1.92;;;20.60;56.70;;;;;;5002492;28;20037;-66
2023/07/06 02:46:58;;;;;;;3.17;2.03;;;20.60;56.80;;;;;;5002424;28;20030;-67
2023/07/06 02:49:24;;;;;;;2.80;2.05;;;20.60;56.80;;;;;;5005205;28;20045;-67
2023/07/06 02:51:49;;;;;;;3.53;2.50;;;20.60;56.90;;;;;;5002085;28;20044;-66
2023/07/06 02:54:15;;;;;;;3.42;2.15;;;20.60;56.80;;;;;;4999362;28;20097;-66
2023/07/06 02:56:41;;;;;;;3.22;2.38;;;20.60;56.90;;;;;;5000785;28;20037;-66
2023/07/06 02:59:08;;;;;;;2.47;2.13;;;20.50;56.80;;;;;;5002288;28;20041;-67
2023/07/06 03:01:34;;;;;;;3.15;2.20;;;20.50;56.90;;;;;;5003387;28;20038;-66
2023/07/06 03:04:00;;;;;;;3.13;1.90;;;20.50;57.00;;;;;;5003470;28;20038;-67
2023/07/06 03:06:25;;;;;;;2.42;2.03;;;20.50;57.10;;;;;;5002003;28;20041;-67
2023/07/06 03:08:51;;;;;;;2.60;1.80;;;20.50;57.00;;;;;;5002563;28;20147;-66
2023/07/06 03:11:17;;;;;;;2.30;2.10;;;20.50;56.90;;;;;;5001723;28;20037;-68
2023/07/06 03:13:42;;;;;;;2.30;1.88;;;20.50;57.00;;;;;;5001864;28;20098;-67
2023/07/06 03:16:08;;;;;;;2.67;2.17;;;20.60;57.10;;;;;;5003713;28;20053;-66
2023/07/06 03:18:34;;;;;;;2.75;2.35;;;20.50;57.70;;;;;;5000449;28;20493;-65
2023/07/06 03:21:02;;;;;;;4.45;1.90;;;20.50;57.00;;;;;;5000495;28;20034;-67
2023/07/06 03:23:29;;;;;;;2.90;2.40;;;20.50;57.00;;;;;;5001441;28;20077;-63
2023/07/06 03:25:55;;;;;;;4.60;1.95;;;20.50;57.10;;;;;;4999061;28;20026;-67
2023/07/06 03:28:23;;;;;;;4.60;1.90;;;20.50;57.10;;;;;;5002509;28;20050;-67
2023/07/06 03:30:56;;;;;;;2.78;2.10;;;20.50;57.20;;;;;;5002560;28;20111;-67
2023/07/06 03:33:24;;;;;;;3.50;2.28;;;20.50;57.30;;;;;;5002431;28;20236;-66
2023/07/06 03:35:53;;;;;;;4.03;2.50;;;20.50;57.40;;;;;;5002337;28;20044;-67
2023/07/06 03:38:19;;;;;;;2.45;2.10;;;20.50;57.40;;;;;;5003234;28;20034;-68
2023/07/06 03:40:49;;;;;;;2.15;1.90;;;20.50;57.30;;;;;;5002366;28;20380;-68
2023/07/06 03:43:16;;;;;;;3.80;1.98;;;20.60;57.40;;;;;;5001879;28;20061;-67
2023/07/06 03:45:41;;;;;;;2.35;1.70;;;20.50;57.30;;;;;;5002807;28;20041;-60
2023/07/06 03:48:07;;;;;;;3.28;1.95;;;20.50;57.20;;;;;;4996490;28;20034;-60
2023/07/06 03:50:34;;;;;;;2.38;1.70;;;20.50;57.20;;;;;;5001101;28;20095;-66
2023/07/06 03:53:00;;;;;;;2.88;1.95;;;20.50;57.30;;;;;;5002160;28;20048;-61
2023/07/06 03:55:27;;;;;;;3.17;1.77;;;20.50;57.30;;;;;;5002400;28;20038;-64
2023/07/06 03:57:52;;;;;;;3.78;1.80;;;20.50;57.30;;;;;;5003226;28;20497;-63
2023/07/06 04:00:22;;;;;;;2.90;1.95;;;20.60;57.40;;;;;;5002463;28;20041;-64
2023/07/06 04:02:49;;;;;;;2.70;1.92;;;20.50;57.40;;;;;;5003691;28;20030;-62
2023/07/06 04:05:19;;;;;;;2.80;2.13;;;20.50;57.40;;;;;;5003956;28;20234;-67
2023/07/06 04:07:45;;;;;;;2.95;1.98;;;20.50;57.40;;;;;;5000197;28;20117;-62
2023/07/06 04:10:12;;;;;;;3.28;2.10;;;20.50;57.40;;;;;;5003110;28;20192;-62
2023/07/06 04:12:38;;;;;;;2.25;1.67;;;20.60;57.50;;;;;;5003902;28;20038;-61
2023/07/06 04:15:06;;;;;;;2.92;1.98;;;20.50;57.40;;;;;;4998523;28;20030;-62
2023/07/06 04:17:32;;;;;;;3.85;2.22;;;20.50;57.40;;;;;;5001739;28;20034;-61
2023/07/06 04:19:58;;;;;;;2.33;1.70;;;20.60;57.40;;;;;;5004126;28;20085;-64
2023/07/06 04:22:23;;;;;;;1.88;1.67;;;20.50;57.30;;;;;;5002442;28;20034;-63
2023/07/06 04:24:49;;;;;;;4.72;2.22;;;20.50;57.30;;;;;;5007386;28;20417;-62
2023/07/06 04:27:14;;;;;;;2.65;2.05;;;20.60;57.50;;;;;;5004777;28;20030;-67
2023/07/06 04:29:40;;;;;;;3.15;2.22;;;20.50;57.40;;;;;;5007171;28;20033;-66
2023/07/06 04:32:06;;;;;;;2.45;1.85;;;20.50;57.50;;;;;;5005868;28;20033;-67
2023/07/06 04:34:31;;;;;;;2.63;1.92;;;20.60;57.50;;;;;;5004846;28;20038;-65
2023/07/06 04:36:57;;;;;;;2.40;1.70;;;20.60;57.60;;;;;;5003737;28;20084;-67
2023/07/06 04:39:22;;;;;;;2.75;1.80;;;20.60;57.70;;;;;;5005425;28;20037;-67
2023/07/06 04:41:48;;;;;;;2.35;1.80;;;20.60;57.60;;;;;;5006126;28;20062;-67
2023/07/06 04:44:15;;;;;;;2.72;2.22;;;20.60;57.50;;;;;;5003305;28;20054;-67
2023/07/06 04:46:41;;;;;;;3.20;2.03;;;20.70;57.70;;;;;;5002491;28;20456;-67
2023/07/06 04:49:07;;;;;;;4.05;1.98;;;20.70;57.70;;;;;;5002432;28;20038;-67
2023/07/06 04:51:35;;;;;;;2.60;1.55;;;20.80;57.70;;;;;;5005717;28;20044;-67
2023/07/06 04:54:02;;;;;;;3.17;2.10;;;20.80;57.70;;;;;;5007318;28;20057;-63
2023/07/06 04:56:27;;;;;;;4.55;2.00;;;20.80;58.40;;;;;;5005756;28;20034;-62
2023/07/06 04:58:53;;;;;;;2.08;1.70;;;20.80;57.70;;;;;;5006116;28;20215;-66
2023/07/06 05:01:19;;;;;;;4.72;2.17;;;20.80;57.80;;;;;;5005545;28;20088;-68
2023/07/06 05:03:45;;;;;;;4.63;2.22;;;20.90;57.90;;;;;;5007824;28;20034;-67
2023/07/06 05:06:12;;;;;;;2.85;2.25;;;20.80;57.90;;;;;;5004525;28;20084;-67
2023/07/06 05:08:39;;;;;;;3.08;1.95;;;20.90;57.80;;;;;;5006292;28;20034;-67
2023/07/06 05:11:05;;;;;;;3.22;1.73;;;20.90;57.90;;;;;;5005578;28;20527;-67
2023/07/06 05:13:31;;;;;;;2.30;1.92;;;20.90;57.90;;;;;;5001325;28;20046;-66
2023/07/06 05:15:58;;;;;;;2.65;2.00;;;20.90;57.90;;;;;;5006824;28;20022;-67
2023/07/06 05:18:23;;;;;;;2.80;1.77;;;20.90;57.90;;;;;;5005948;28;20041;-67
2023/07/06 05:20:50;;;;;;;4.00;2.22;;;20.90;57.80;;;;;;5006683;28;20037;-66
2023/07/06 05:23:17;;;;;;;2.83;1.95;;;21.00;57.90;;;;;;5006028;28;20451;-66
2023/07/06 05:25:43;;;;;;;3.03;1.77;;;21.00;57.90;;;;;;5005528;28;20034;-65
2023/07/06 05:28:11;;;;;;;3.35;1.75;;;21.00;57.90;;;;;;5004658;28;20038;-67
2023/07/06 05:30:42;;;;;;;3.65;1.95;;;21.00;57.90;;;;;;5004859;28;20076;-67
2023/07/06 05:33:08;;;;;;;2.60;1.95;;;21.00;57.90;;;;;;5006601;28;20033;-67
2023/07/06 05:35:34;;;;;;;2.70;1.98;;;21.00;57.90;;;;;;5003777;28;20049;-67
2023/07/06 05:38:02;;;;;;;2.60;1.50;;;21.00;57.90;;;;;;5003917;28;20049;-67
2023/07/06 05:40:28;;;;;;;3.03;2.03;;;21.00;57.90;;;;;;5003223;28;20113;-63
2023/07/06 05:42:54;;;;;;;2.58;1.70;;;21.00;57.90;;;;;;5001658;28;20118;-67
2023/07/06 05:45:20;;;;;;;4.15;1.83;;;21.00;57.90;;;;;;5005894;28;20034;-67
2023/07/06 05:47:47;;;;;;;2.35;1.50;;;21.00;57.90;;;;;;5004646;28;20049;-65
2023/07/06 05:50:13;;;;;;;2.90;2.03;;;21.00;57.80;;;;;;5005827;28;20113;-66
2023/07/06 05:52:40;;;;;;;3.88;2.10;;;21.00;57.80;;;;;;5005836;28;20042;-67
2023/07/06 05:55:06;;;;;;;3.08;2.10;;;21.00;57.90;;;;;;5001763;28;20038;-71
2023/07/06 05:57:32;;;;;;;4.10;2.08;;;21.00;57.90;;;;;;5002679;28;20026;-67
2023/07/06 05:59:58;;;;;;;4.20;2.15;;;21.00;57.80;;;;;;5003796;28;20030;-65
2023/07/06 06:02:25;;;;;;;2.65;1.77;;;21.00;57.90;;;;;;5002728;28;20048;-69
2023/07/06 06:04:51;;;;;;;2.67;1.95;;;21.00;57.90;;;;;;5005616;28;20030;-67
2023/07/06 06:07:19;;;;;;;5.65;1.92;;;21.00;57.90;;;;;;5005925;28;20467;-66
2023/07/06 06:09:48;;;;;;;4.30;2.10;;;21.00;57.80;;;;;;5004343;28;20172;-67
2023/07/06 06:12:18;;;;;;;3.15;2.20;;;21.00;57.80;;;;;;5003450;28;20323;-67
2023/07/06 06:14:46;;;;;;;3.38;2.15;;;21.00;57.90;;;;;;5005052;28;20038;-66
2023/07/06 06:17:12;;;;;;;2.33;1.70;;;21.00;57.90;;;;;;5004967;28;20034;-66
2023/07/06 06:19:38;;;;;;;3.17;2.22;;;21.00;57.90;;;;;;5005696;28;21997;-66
2023/07/06 06:22:06;;;;;;;4.00;2.13;;;21.10;57.90;;;;;;5004266;28;20191;-66
2023/07/06 06:24:32;;;;;;;2.72;2.00;;;21.00;57.90;;;;;;5001701;28;20081;-66
2023/07/06 06:27:00;;;;;;;2.80;1.65;;;21.00;57.80;;;;;;5005206;28;20030;-63
2023/07/06 06:29:27;;;;;;;3.38;1.85;;;21.00;57.80;;;;;;5001243;28;20030;-66
2023/07/06 06:31:52;;;;;;;2.63;1.90;;;21.00;57.70;;;;;;5005208;28;20033;-65
2023/07/06 06:34:18;;;;;;;3.22;2.28;;;21.00;57.80;;;;;;5004556;28;20038;-67
2023/07/06 06:36:43;;;;;;;3.78;2.13;;;21.00;57.80;;;;;;5000490;28;20038;-65
2023/07/06 06:39:09;;;;;;;3.35;2.35;;;21.00;57.40;;;;;;5003075;28;20401;-66
2023/07/06 06:41:38;;;;;;;2.65;1.83;;;21.00;57.50;;;;;;5002595;28;20039;-66
2023/07/06 06:44:05;;;;;;;1.98;1.73;;;21.00;57.60;;;;;;4997663;28;20033;-66
2023/07/06 06:46:31;;;;;;;2.15;1.70;;;21.00;57.50;;;;;;5003044;28;20038;-67
2023/07/06 06:48:57;;;;;;;2.60;1.88;;;21.00;56.60;;;;;;5005135;28;20505;-66
2023/07/06 06:51:22;;;;;;;2.63;1.77;;;21.00;57.00;;;;;;5004209;28;20117;-66
2023/07/06 06:53:48;;;;;;;3.70;2.03;;;21.00;57.40;;;;;;5005716;28;20121;-67
2023/07/06 06:56:13;;;;;;;2.72;1.90;;;21.00;57.40;;;;;;5002887;28;20026;-65
2023/07/06 06:58:39;;;;;;;2.92;1.95;;;21.00;57.30;;;;;;5002532;28;20413;-66
2023/07/06 07:01:07;;;;;;;1.95;1.60;;;21.00;56.30;;;;;;5003551;28;20054;-66
2023/07/06 07:03:34;;;;;;;2.60;1.73;;;21.00;56.90;;;;;;5000717;28;20282;-69
2023/07/06 07:06:13;;;;;;;4.50;1.90;;;21.00;57.10;;;;;;5003338;28;20034;-66
2023/07/06 07:08:40;;;;;;;2.30;1.40;;;21.00;56.70;;;;;;5000436;28;20480;-66
2023/07/06 07:11:06;;;;;;;2.00;1.40;;;21.00;57.20;;;;;;5002034;28;20025;-66
2023/07/06 07:13:37;;;;;;;3.58;1.73;;;21.00;57.30;;;;;;5001532;28;20026;-66
2023/07/06 07:16:04;;;;;;;2.55;1.73;;;21.00;55.50;;;;;;5002150;28;20030;-66
2023/07/06 07:18:30;;;;;;;2.13;1.40;;;21.00;56.40;;;;;;5002351;28;20037;-66
2023/07/06 07:20:56;;;;;;;2.35;1.60;;;21.00;56.60;;;;;;5003453;28;20034;-66
2023/07/06 07:23:23;;;;;;;5.40;1.58;;;20.90;56.60;;;;;;5002351;28;20030;-67
2023/07/06 07:25:49;;;;;;;2.83;1.45;;;21.00;56.90;;;;;;5003516;28;20033;-66
2023/07/06 07:28:18;;;;;;;2.67;1.40;;;21.00;57.00;;;;;;5003759;28;20080;-66
2023/07/06 07:30:56;;;;;;;2.42;1.58;;;21.00;56.90;;;;;;5002706;28;20026;-63
2023/07/06 07:33:23;;;;;;;3.38;2.20;;;21.00;57.10;;;;;;5002160;28;20034;-67
2023/07/06 07:35:50;;;;;;;6.88;2.28;;;21.00;57.20;;;;;;5003069;28;20037;-66
2023/07/06 07:38:17;;;;;;;2.78;2.10;;;21.00;56.30;;;;;;5002859;28;20038;-66
2023/07/06 07:40:58;;;;;;;5.95;2.58;;;21.00;56.70;;;;;;5002895;28;20037;-66
2023/07/06 07:43:25;;;;;;;3.75;2.15;;;20.90;56.90;;;;;;5000898;28;20446;-67
2023/07/06 07:45:56;;;;;;;4.68;1.80;;;21.00;57.20;;;;;;5003605;28;20022;-66
2023/07/06 07:48:23;;;;;;;8.52;2.92;;;21.00;56.80;;;;;;5002385;28;20046;-67
2023/07/06 07:50:58;;;;;;;6.10;2.55;;;21.00;56.30;;;;;;5003867;28;20030;-67
2023/07/06 07:53:25;;;;;;;3.30;2.22;;;21.00;55.80;;;;;;5002047;28;20195;-66
2023/07/06 07:55:53;;;;;;;6.47;2.35;;;21.00;56.10;;;;;;5004952;28;20049;-66
2023/07/06 07:58:19;;;;;;;5.85;2.60;;;21.00;56.50;;;;;;5001873;28;20041;-65
2023/07/06 08:00:49;;;;;;;4.40;1.92;;;20.90;55.40;;;;;;5003772;28;20038;-66
2023/07/06 08:03:15;;;;;;;4.20;2.10;;;20.90;56.30;;;;;;5004780;28;20443;-66
2023/07/06 08:05:42;;;;;;;5.55;2.10;;;20.90;56.50;;;;;;5000879;28;20109;-66
2023/07/06 08:08:10;;;;;;;3.22;1.98;;;20.90;56.30;;;;;;5003296;28;20026;-67
2023/07/06 08:10:38;;;;;;;5.22;2.00;;;21.00;56.00;;;;;;5002813;28;20100;-66
2023/07/06 08:13:05;;;;;;;5.30;1.90;;;20.90;56.00;;;;;;5004672;28;20053;-66
2023/07/06 08:15:31;;;;;;;4.78;2.35;;;20.90;56.40;;;;;;5003857;28;20464;-65
2023/07/06 08:18:00;;;;;;;4.00;1.83;;;20.90;56.60;;;;;;5002467;28;20138;-65
2023/07/06 08:20:28;;;;;;;4.45;2.28;;;20.90;56.80;;;;;;5002114;28;20030;-66
2023/07/06 08:22:57;;;;;;;3.25;1.98;;;20.90;56.10;;;;;;5004097;28;20036;-66
2023/07/06 08:25:23;;;;;;;4.07;2.00;;;20.90;56.40;;;;;;5003270;28;20515;-63
2023/07/06 08:27:48;;;;;;;4.82;2.05;;;20.90;56.00;;;;;;5003481;28;20038;-66
2023/07/06 08:30:14;;;;;;;3.88;2.25;;;21.00;56.60;;;;;;4999732;28;20029;-65
2023/07/06 08:32:39;;;;;;;3.97;2.17;;;20.90;56.90;;;;;;5001178;28;20026;-66
2023/07/06 08:35:05;;;;;;;4.20;2.10;;;20.90;57.00;;;;;;5003535;28;20335;-66
2023/07/06 08:37:31;;;;;;;5.07;2.40;;;20.90;56.90;;;;;;5001785;28;20034;-67
2023/07/06 08:39:57;;;;;;;4.88;2.25;;;20.90;55.60;;;;;;5003739;28;20022;-65
2023/07/06 08:42:22;;;;;;;3.35;2.05;;;20.90;56.60;;;;;;5003614;28;20052;-62
2023/07/06 08:44:54;;;;;;;5.10;2.17;;;20.90;55.80;;;;;;5003458;28;20406;-66
2023/07/06 08:47:25;;;;;;;3.75;1.80;;;20.90;56.20;;;;;;5002513;28;20042;-66
2023/07/06 08:49:51;;;;;;;5.03;2.20;;;20.90;56.20;;;;;;5002802;28;20408;-66
2023/07/06 08:52:19;;;;;;;2.83;1.80;;;20.90;56.50;;;;;;5003989;28;20030;-66
2023/07/06 08:54:50;;;;;;;2.72;1.67;;;20.90;56.70;;;;;;5001809;28;20049;-66
2023/07/06 08:57:21;;;;;;;3.80;1.90;;;20.90;57.00;;;;;;5003787;28;20560;-66
2023/07/06 08:59:49;;;;;;;4.68;1.88;;;20.90;57.10;;;;;;5002652;28;20117;-63
2023/07/06 09:02:23;;;;;;;3.65;1.70;;;20.90;57.00;;;;;;5004021;28;20453;-66
2023/07/06 09:04:51;;;;;;;3.95;1.63;;;20.90;57.10;;;;;;5000379;28;20037;-65
2023/07/06 09:07:21;;;;;;;2.42;1.40;;;20.90;57.20;;;;;;4995557;28;20105;-65
2023/07/06 09:09:47;;;;;;;3.13;1.73;;;20.90;57.20;;;;;;5005481;28;20038;-63
2023/07/06 09:12:28;;;;;;;3.22;1.70;;;20.90;56.30;;;;;;5007514;28;20116;-64
2023/07/06 09:14:55;;;;;;;3.28;1.70;;;20.90;57.20;;;;;;5006217;28;20384;-66
2023/07/06 09:17:21;;;;;;;2.90;1.63;;;20.90;57.10;;;;;;5005705;28;20022;-66
2023/07/06 09:19:47;;;;;;;2.65;1.50;;;20.90;57.20;;;;;;5004818;28;20393;-66
2023/07/06 09:22:13;;;;;;;5.70;2.33;;;20.90;55.10;;;;;;5008498;28;20029;-66
2023/07/06 09:24:44;;;;;;;3.47;1.98;;;20.90;55.30;;;;;;5007708;28;20038;-66
2023/07/06 09:27:17;;;;;;;4.35;1.80;;;20.90;55.90;;;;;;5005079;28;20122;-65
2023/07/06 09:29:44;;;;;;;4.95;2.03;;;20.90;56.30;;;;;;5005622;28;20556;-64
2023/07/06 09:32:16;;;;;;;2.28;1.77;;;20.90;55.80;;;;;;5006258;28;20041;-66
2023/07/06 09:34:44;;;;;;;3.35;1.85;;;20.90;56.50;;;;;;5003423;28;20389;-66
2023/07/06 09:37:12;;;;;;;4.25;1.75;;;20.90;56.20;;;;;;5007183;28;20042;-63
2023/07/06 09:39:38;;;;;;;3.65;2.25;;;20.90;56.90;;;;;;5005370;28;20030;-65
2023/07/06 09:42:04;;;;;;;4.80;1.90;;;20.90;56.90;;;;;;5006641;28;20097;-65
2023/07/06 09:44:31;;;;;;;5.10;1.67;;;20.90;56.40;;;;;;5006080;28;20038;-66
2023/07/06 09:46:58;;;;;;;5.55;1.92;;;20.90;56.70;;;;;;5003865;28;20038;-66
2023/07/06 09:49:32;;;;;;;6.90;1.85;;;20.90;55.30;;;;;;5006579;28;20084;-66
2023/07/06 09:52:05;;;;;;;3.67;2.00;;;20.90;55.40;;;;;;5006463;28;20026;-66
2023/07/06 09:54:56;;;;;;;3.03;2.00;;;20.90;56.20;;;;;;5005721;28;20049;-64
2023/07/06 09:57:24;;;;;;;3.33;1.50;;;20.90;55.40;;;;;;5001899;28;20593;-64
2023/07/06 09:59:52;;;;;;;3.63;2.10;;;20.90;56.20;;;;;;5005726;28;20034;-66
2023/07/06 10:02:24;;;;;;;3.30;1.70;;;20.90;54.60;;;;;;5004627;28;20096;-65
2023/07/06 10:05:01;;;;;;;4.97;1.70;;;20.90;55.70;;;;;;5005187;28;20574;-66
2023/07/06 10:07:52;;;;;;;2.67;1.48;;;20.90;56.20;;;;;;5005993;28;20060;-66
2023/07/06 10:10:33;;;;;;;4.28;2.10;;;20.80;56.40;;;;;;5005838;28;20069;-66
2023/07/06 10:13:10;;;;;;;2.03;1.55;;;20.90;56.00;;;;;;5005335;28;20033;-65
2023/07/06 10:15:54;;;;;;;2.30;1.67;;;20.90;56.60;;;;;;5004367;28;20029;-66
2023/07/06 10:18:21;;;;;;;2.58;1.75;;;20.90;56.80;;;;;;5004215;28;20400;-65
2023/07/06 10:20:58;;;;;;;4.30;1.70;;;20.90;56.70;;;;;;5002264;28;20034;-67
2023/07/06 10:23:49;;;;;;;2.45;1.40;;;20.90;56.90;;;;;;5002262;28;20303;-66
2023/07/06 10:26:33;;;;;;;2.67;1.63;;;20.90;57.00;;;;;;5000471;28;20022;-67
2023/07/06 10:29:01;;;;;;;4.78;1.63;;;20.90;57.10;;;;;;5004037;28;20476;-66
2023/07/06 10:31:37;;;;;;;2.80;1.63;;;20.90;55.30;;;;;;5002559;28;20100;-66
2023/07/06 10:34:18;;;;;;;2.92;1.70;;;20.90;55.10;;;;;;5005457;28;20449;-66
2023/07/06 10:36:45;;;;;;;3.15;1.65;;;20.90;54.30;;;;;;5003291;28;20088;-66
2023/07/06 10:39:42;;;;;;;5.10;1.88;;;20.90;54.00;;;;;;5005260;28;20030;-66
2023/07/06 10:42:23;;;;;;;3.67;2.03;;;20.90;54.20;;;;;;5003386;28;20064;-65
2023/07/06 10:44:59;;;;;;;3.08;1.92;;;20.90;53.50;;;;;;5004643;28;20041;-66
2023/07/06 10:47:41;;;;;;;7.18;2.10;;;20.90;53.40;;;;;;5005076;28;20066;-66
2023/07/06 10:50:19;;;;;;;3.28;1.77;;;20.90;54.00;;;;;;4999289;28;20518;-64
2023/07/06 10:52:57;;;;;;;3.88;1.83;;;20.90;54.60;;;;;;5004055;28;20030;-66
2023/07/06 10:55:26;;;;;;;2.45;1.50;;;20.90;54.90;;;;;;5004752;28;20034;-65
2023/07/06 10:57:57;;;;;;;3.80;1.52;;;20.90;55.40;;;;;;4999848;28;20120;-66
2023/07/06 11:00:32;;;;;;;2.83;1.60;;;20.90;55.80;;;;;;5005428;28;20117;-65
2023/07/06 11:02:59;;;;;;;2.88;1.60;;;20.90;54.60;;;;;;5005413;28;20026;-66
2023/07/06 11:05:32;;;;;;;2.95;1.80;;;20.90;55.80;;;;;;5005835;28;20033;-66
2023/07/06 11:08:00;;;;;;;2.33;1.70;;;20.90;54.30;;;;;;5004341;28;20026;-66
2023/07/06 11:10:48;;;;;;;4.10;2.15;;;20.90;54.30;;;;;;5003407;28;20038;-64
2023/07/06 11:13:17;;;;;;;1.98;1.67;;;20.90;54.30;;;;;;5003865;28;20129;-65
2023/07/06 11:15:43;;;;;;;2.70;1.58;;;20.90;54.30;;;;;;5003111;28;20041;-66
2023/07/06 11:18:23;;;;;;;2.47;1.83;;;20.90;54.10;;;;;;5001644;28;20030;-66
2023/07/06 11:21:06;;;;;;;2.78;1.77;;;20.90;54.50;;;;;;4999966;28;20660;-64
2023/07/06 11:23:45;;;;;;;2.65;1.80;;;20.90;55.40;;;;;;5003615;28;20412;-70
2023/07/06 11:26:42;;;;;;;3.03;1.50;;;20.90;54.90;;;;;;5034348;28;20034;-65
2023/07/06 11:29:08;;;;;;;3.90;1.70;;;20.90;54.50;;;;;;5003444;28;20023;-64
2023/07/06 11:31:53;;;;;;;3.58;1.77;;;20.90;53.90;;;;;;5004595;28;20030;-64
2023/07/06 11:34:25;;;;;;;;;;;20.90;54.80;;;;;;5003129;28;20061;-65
2023/07/06 11:37:25;;;;;;;4.72;1.75;;;20.90;54.90;;;;;;5003577;28;20325;-65
2023/07/06 11:40:19;;;;;;;2.97;1.70;;;20.90;54.90;;;;;;5004315;28;20034;-68
2023/07/06 11:43:06;;;;;;;6.38;2.55;;;21.00;55.30;;;;;;5002449;28;20062;-65
2023/07/06 11:45:58;;;;;;;2.95;2.00;;;21.00;55.00;;;;;;4999596;28;20116;-64
2023/07/06 11:48:39;;;;;;;8.82;3.40;;;20.90;55.80;;;;;;5003163;28;20093;-65
2023/07/06 11:51:05;;;;;;;5.93;2.70;;;20.90;55.50;;;;;;5002564;28;20022;-64
2023/07/06 11:53:44;;;;;;;5.53;3.08;;;20.90;54.40;;;;;;5005169;28;20042;-65
2023/07/06 11:56:32;;;;;;;8.07;3.05;;;20.90;55.30;;;;;;5003857;28;20025;-65
2023/07/06 11:59:01;;;;;;;6.20;2.88;;;21.00;56.00;;;;;;5002962;28;20041;-62
2023/07/06 12:01:33;;;;;;;6.43;3.60;;;21.00;56.20;;;;;;5006155;28;20060;-64
2023/07/06 12:04:02;;;;;;;7.95;4.03;;;21.00;56.60;;;;;;5005093;28;20578;-68
2023/07/06 12:06:27;;;;;;;6.05;3.85;;;20.90;56.70;;;;;;5003433;28;20038;-60
2023/07/06 12:08:54;;;;;;;7.47;3.35;;;21.00;56.80;;;;;;5001733;28;20116;-64
2023/07/06 12:11:23;;;;;;;6.15;3.42;;;21.00;56.90;;;;;;5005855;28;20038;-64
2023/07/06 12:13:52;;;;;;;6.13;3.00;;;21.00;56.80;;;;;;5002549;28;20232;-63
2023/07/06 12:16:20;;;;;;;3.80;2.75;;;21.00;56.70;;;;;;5002361;28;20440;-64
2023/07/06 12:18:52;;;;;;;6.82;2.70;;;21.00;56.80;;;;;;5000810;28;20053;-65
2023/07/06 12:21:30;;;;;;;7.15;3.08;;;21.00;56.10;;;;;;5004835;28;20125;-66
2023/07/06 12:24:04;;;;;;;4.88;2.55;;;21.00;55.30;;;;;;5000785;28;20512;-65
2023/07/06 12:26:31;;;;;;;3.45;2.50;;;21.00;54.90;;;;;;5004397;28;20049;-64
2023/07/06 12:28:57;;;;;;;3.80;2.70;;;21.00;55.40;;;;;;5004335;28;20026;-65
2023/07/06 12:31:25;;;;;;;3.78;2.28;;;21.00;55.00;;;;;;5004574;28;20084;-65
2023/07/06 12:33:56;;;;;;;3.67;2.50;;;21.00;53.60;;;;;;5006175;28;20034;-65
2023/07/06 12:36:24;;;;;;;3.38;2.25;;;21.00;54.30;;;;;;5006458;28;20049;-65
2023/07/06 12:38:54;;;;;;;4.60;2.28;;;21.00;53.60;;;;;;5006690;28;20038;-66
2023/07/06 12:41:20;;;;;;;4.72;2.47;;;21.00;53.50;;;;;;5003298;28;20053;-70
2023/07/06 12:43:49;;;;;;;3.53;2.30;;;21.00;54.50;;;;;;5006638;28;20562;-66
2023/07/06 12:46:21;;;;;;;4.40;2.47;;;21.00;55.00;;;;;;5006351;28;20673;-64
2023/07/06 12:48:51;;;;;;;2.92;1.90;;;21.00;55.20;;;;;;5007903;28;20300;-60
2023/07/06 12:51:21;;;;;;;6.97;2.40;;;21.00;55.00;;;;;;5006656;28;20057;-72
2023/07/06 12:53:49;;;;;;;3.47;2.47;;;21.00;54.90;;;;;;5003381;28;20399;-64
2023/07/06 12:56:20;;;;;;;4.30;2.65;;;20.90;55.40;;;;;;5008350;28;20108;-67
2023/07/06 12:58:53;;;;;;;5.07;2.30;;;21.00;55.70;;;;;;5004973;28;20037;-66
2023/07/06 13:01:20;;;;;;;3.70;2.25;;;21.00;56.00;;;;;;5002161;28;20342;-63
2023/07/06 13:03:59;;;;;;;6.47;2.85;;;21.00;56.60;;;;;;5005669;28;20030;-65